Dover, VT

10:26 AM EDT on September 22, 2014 (GMT -0400)
Mt. Snow/Suntec Forest | Change Station
CLOSE
Current Station
Personal Weather Station
Location: West Dover, VT
Elevation: 1932 ft
Nearby Weather Stations

Elev 1932 ft 42.95 °N, 72.89 °W | Updated 5 seconds ago

Mostly Cloudy
Mostly Cloudy
54.6 °F
Feels Like 54.6 °F
N
0.0
Wind Variable Wind from NNW
Gusts 13.0 mph

Today
High -- | Low -- °F
--% Chance of Precip.
Yesterday
High -- | Low -- °F
Precip. -- in
6:38 AM 6:48 PM
Waning Crescent, 3% visible
Pressure 29.82 in
Visibility 10.0 miles
Clouds Mostly Cloudy 2500 ft
Overcast 3200 ft
Dew Point 48 °F
Humidity 79%
Rainfall 0.00 in
Snow Depth Not available.
UV 1 out of 12
Pollen 2.90 out of 12
Ozone Good
Flu Activity Not available.
METAR KDDH 221354Z AUTO 26008G16KT 10SM BKN025 OVC032 13/08 A2983 RMK AO2 SLP098 T01330083

More Conditions Fewer Conditions

Pressure 29.82 in
Visibility 10.0 miles
Clouds Mostly Cloudy 2500 ft
Overcast 3200 ft
Dew Point 48 °F
Humidity 79%
Rainfall 0.00 in
Snow Depth Not available.
UV 1 out of 12
Pollen 2.90 out of 12
Ozone Good
Flu Activity Not available.
METAR KDDH 221354Z AUTO 26008G16KT 10SM BKN025 OVC032 13/08 A2983 RMK AO2 SLP098 T01330083

More Conditions Fewer Conditions

10-Day Weather Forecast

Almanac

Astronomy

Sep. 22, 2014 Rise Set
Actual Time 6:38 AM EDT 6:48 PM EDT
Civil Twilight 6:10 AM EDT 7:17 PM EDT
Nautical Twilight 5:37 AM EDT 7:50 PM EDT
Astronomical Twilight 5:03 AM EDT 8:24 PM EDT
Moon 5:03 AM EDT 5:56 PM EDT
Length of Visible Light 13h 06m
Length of Day
12h 10m
Tomorrow will be 2m 54s shorter.
Waning Crescent, 3% of the Moon is Illuminated
Today
Waning Crescent
Sep 24
New
Oct 1
First Quarter
Oct 8
Full
Oct 15
Last Quarter

Today's Extremes

State Highs State Lows

Community

WunderPhotos

Upload Photos

1,755,444 photos uploaded!

WunderBlogs® & News

By Dr. Jeff Masters
Director of Meteorology, Weather Underground
By Kari Strenfel
Meteorologist, Weather Underground
By Christopher C. Burt
Weather Historian, Weather Underground
September 22, 2014
September 22, 2014
September 22, 2014

Nearby

Air Quality

  Air Quality AQ Index Pollutant
Yesterday Good
OZONE
Yesterday Good
PM2.5
Current Good
OZONE
Monday Good
PM2.5

Snow Depth

Station Depth Elevation
No new snow has been reported.

Earthquake Activity

City Distance Mag. Time & Date
No recent earthquake activity has been reported nearby.
Minimum magnitude displayed is 2.5.

Coastal Water Temperatures

Place Temperature
No Stations Reporting

Nearby Weather Stations